createdAt,value
2016-06-12T00:00:07.948Z,1005.8
2016-06-12T00:00:17.933Z,1005.83
2016-06-12T00:00:27.933Z,1005.81
2016-06-12T00:00:37.936Z,1005.81
2016-06-12T00:00:47.936Z,1005.85
2016-06-12T00:00:57.920Z,1005.82
2016-06-12T00:01:07.904Z,1005.79
2016-06-12T00:01:17.920Z,1005.78
2016-06-12T00:01:27.920Z,1005.85
2016-06-12T00:01:37.907Z,1005.82
2016-06-12T00:01:47.892Z,1005.78
2016-06-12T00:01:57.892Z,1005.82
2016-06-12T00:02:07.892Z,1005.79
2016-06-12T00:02:17.892Z,1005.78
2016-06-12T00:02:27.876Z,1005.8
2016-06-12T00:02:37.879Z,1005.81
2016-06-12T00:02:47.864Z,1005.85
2016-06-12T00:02:57.864Z,1005.79
2016-06-12T00:03:07.864Z,1005.82
2016-06-12T00:03:17.864Z,1005.8
2016-06-12T00:03:27.848Z,1005.82
2016-06-12T00:03:37.851Z,1005.81
2016-06-12T00:03:47.835Z,1005.79
2016-06-12T00:03:57.835Z,1005.79
2016-06-12T00:04:07.835Z,1005.8
2016-06-12T00:04:17.820Z,1005.78
2016-06-12T00:04:27.820Z,1005.78
2016-06-12T00:04:37.823Z,1005.76
2016-06-12T00:04:49.323Z,1005.81
2016-06-12T00:04:57.807Z,1005.83
2016-06-12T00:05:08.573Z,1005.82
2016-06-12T00:05:18.276Z,1005.79
2016-06-12T00:05:28.513Z,1005.78
2016-06-12T00:05:38.763Z,1005.78
2016-06-12T00:05:47.779Z,1005.73
2016-06-12T00:05:57.779Z,1005.75
2016-06-12T00:06:07.779Z,1005.78
2016-06-12T00:06:17.763Z,1005.74
2016-06-12T00:06:27.763Z,1005.78
2016-06-12T00:06:37.752Z,1005.79
2016-06-12T00:06:47.752Z,1005.75
2016-06-12T00:06:57.752Z,1005.74
2016-06-12T00:07:07.736Z,1005.75
2016-06-12T00:07:17.736Z,1005.77
2016-06-12T00:07:27.736Z,1005.77
2016-06-12T00:07:37.723Z,1005.8
2016-06-12T00:07:47.723Z,1005.75
2016-06-12T00:07:57.723Z,1005.76
2016-06-12T00:08:07.723Z,1005.78
2016-06-12T00:08:17.723Z,1005.78
2016-06-12T00:08:27.692Z,1005.73
2016-06-12T00:08:37.720Z,1005.77
2016-06-12T00:08:47.720Z,1005.74
2016-06-12T00:08:57.720Z,1005.74
2016-06-12T00:09:07.704Z,1005.7
2016-06-12T00:09:17.704Z,1005.73
2016-06-12T00:09:27.704Z,1005.73
2016-06-12T00:09:37.731Z,1005.72
2016-06-12T00:09:47.731Z,1005.79
2016-06-12T00:09:57.731Z,1005.7
2016-06-12T00:10:07.715Z,1005.72
2016-06-12T00:10:17.715Z,1005.74
2016-06-12T00:10:27.715Z,1005.73
2016-06-12T00:10:37.756Z,1005.75
2016-06-12T00:10:47.741Z,1005.73
2016-06-12T00:10:57.741Z,1005.68
2016-06-12T00:11:07.741Z,1005.72
2016-06-12T00:11:17.741Z,1005.68
2016-06-12T00:11:27.725Z,1005.73
2016-06-12T00:11:37.766Z,1005.72
2016-06-12T00:11:47.766Z,1005.69
2016-06-12T00:11:57.750Z,1005.7
2016-06-12T00:12:07.735Z,1005.7
2016-06-12T00:12:17.735Z,1005.71
2016-06-12T00:12:27.735Z,1005.72
2016-06-12T00:12:37.776Z,1005.71
2016-06-12T00:12:47.760Z,1005.77
2016-06-12T00:12:57.760Z,1005.66
2016-06-12T00:13:07.760Z,1005.72
2016-06-12T00:13:17.744Z,1005.73
2016-06-12T00:13:27.729Z,1005.73
2016-06-12T00:13:37.754Z,1005.72
2016-06-12T00:13:47.754Z,1005.7
2016-06-12T00:13:57.754Z,1005.68
2016-06-12T00:14:07.754Z,1005.71
2016-06-12T00:14:17.738Z,1005.7
2016-06-12T00:14:27.738Z,1005.72
2016-06-12T00:14:37.739Z,1005.71
2016-06-12T00:14:47.739Z,1005.72
2016-06-12T00:14:57.739Z,1005.71
2016-06-12T00:15:07.739Z,1005.66
2016-06-12T00:15:17.739Z,1005.7
2016-06-12T00:15:27.707Z,1005.68
2016-06-12T00:15:37.741Z,1005.7
2016-06-12T00:15:47.569Z,1005.69
2016-06-12T00:15:57.725Z,1005.69
2016-06-12T00:16:07.710Z,1005.71
2016-06-12T00:16:17.710Z,1005.75
2016-06-12T00:16:27.710Z,1005.69
2016-06-12T00:16:37.726Z,1005.69
2016-06-12T00:16:47.710Z,1005.71
2016-06-12T00:16:57.710Z,1005.7
2016-06-12T00:17:07.538Z,1005.68
2016-06-12T00:17:17.694Z,1005.69
2016-06-12T00:17:27.679Z,1005.75
2016-06-12T00:17:37.696Z,1005.68
2016-06-12T00:17:47.696Z,1005.67
2016-06-12T00:17:57.540Z,1005.73
2016-06-12T00:18:07.680Z,1005.71
2016-06-12T00:18:17.696Z,1005.73
2016-06-12T00:18:27.680Z,1005.74
2016-06-12T00:18:37.676Z,1005.74
2016-06-12T00:18:47.676Z,1005.74
2016-06-12T00:18:57.676Z,1005.68
2016-06-12T00:19:07.660Z,1005.67
2016-06-12T00:19:17.660Z,1005.69
2016-06-12T00:19:27.660Z,1005.67
2016-06-12T00:19:37.668Z,1005.67
2016-06-12T00:19:48.512Z,1005.71
2016-06-12T00:19:57.590Z,1005.71
2016-06-12T00:20:07.918Z,1005.68
2016-06-12T00:20:17.480Z,1005.7
2016-06-12T00:20:27.980Z,1005.67
2016-06-12T00:20:37.535Z,1005.7
2016-06-12T00:20:47.629Z,1005.7
2016-06-12T00:20:57.629Z,1005.68
2016-06-12T00:21:07.457Z,1005.67
2016-06-12T00:21:17.629Z,1005.68
2016-06-12T00:21:27.613Z,1005.7
2016-06-12T00:21:37.621Z,1005.74
2016-06-12T00:21:47.606Z,1005.69
2016-06-12T00:21:57.606Z,1005.71
2016-06-12T00:22:07.590Z,1005.7
2016-06-12T00:22:17.606Z,1005.69
2016-06-12T00:22:27.575Z,1005.72
2016-06-12T00:22:37.583Z,1005.68
2016-06-12T00:22:47.583Z,1005.72
2016-06-12T00:22:57.583Z,1005.72
2016-06-12T00:23:07.583Z,1005.74
2016-06-12T00:23:17.567Z,1005.75
2016-06-12T00:23:27.551Z,1005.71
2016-06-12T00:23:37.401Z,1005.74
2016-06-12T00:23:47.542Z,1005.72
2016-06-12T00:23:57.542Z,1005.77
2016-06-12T00:24:07.385Z,1005.74
2016-06-12T00:24:17.557Z,1005.72
2016-06-12T00:24:27.542Z,1005.74
2016-06-12T00:24:37.547Z,1005.72
2016-06-12T00:24:47.531Z,1005.75
2016-06-12T00:24:57.531Z,1005.73
2016-06-12T00:25:07.515Z,1005.71
2016-06-12T00:25:17.515Z,1005.72
2016-06-12T00:25:27.515Z,1005.74
2016-06-12T00:25:37.505Z,1005.73
2016-06-12T00:25:47.505Z,1005.73
2016-06-12T00:25:57.489Z,1005.75
2016-06-12T00:26:07.489Z,1005.7
2016-06-12T00:26:17.489Z,1005.71
2016-06-12T00:26:27.474Z,1005.73
2016-06-12T00:26:37.479Z,1005.72
2016-06-12T00:26:47.479Z,1005.76
2016-06-12T00:26:57.479Z,1005.66
2016-06-12T00:27:07.463Z,1005.71
2016-06-12T00:27:17.479Z,1005.69
2016-06-12T00:27:27.447Z,1005.74
2016-06-12T00:27:37.452Z,1005.7
2016-06-12T00:27:47.437Z,1005.68
2016-06-12T00:27:57.452Z,1005.68
2016-06-12T00:28:07.437Z,1005.67
2016-06-12T00:28:17.437Z,1005.63
2016-06-12T00:28:27.437Z,1005.66
2016-06-12T00:28:37.284Z,1005.66
2016-06-12T00:28:47.425Z,1005.67
2016-06-12T00:28:57.409Z,1005.67
2016-06-12T00:29:07.253Z,1005.68
2016-06-12T00:29:17.409Z,1005.66
2016-06-12T00:29:27.394Z,1005.7
2016-06-12T00:29:37.398Z,1005.71
2016-06-12T00:29:47.398Z,1005.65
2016-06-12T00:29:57.382Z,1005.65
2016-06-12T00:30:07.382Z,1005.66
2016-06-12T00:30:17.367Z,1005.67
2016-06-12T00:30:27.367Z,1005.67
2016-06-12T00:30:37.370Z,1005.69
2016-06-12T00:30:47.370Z,1005.66
2016-06-12T00:30:57.354Z,1005.68
2016-06-12T00:31:07.354Z,1005.69
2016-06-12T00:31:17.198Z,1005.62
2016-06-12T00:31:27.338Z,1005.67
2016-06-12T00:31:37.686Z,1005.65
2016-06-12T00:31:47.327Z,1005.69
2016-06-12T00:31:57.327Z,1005.66
2016-06-12T00:32:07.327Z,1005.64
2016-06-12T00:32:17.327Z,1005.64
2016-06-12T00:32:27.311Z,1005.66
2016-06-12T00:32:37.314Z,1005.62
2016-06-12T00:32:47.314Z,1005.64
2016-06-12T00:32:57.298Z,1005.69
2016-06-12T00:33:07.298Z,1005.63
2016-06-12T00:33:17.298Z,1005.63
2016-06-12T00:33:27.283Z,1005.63
2016-06-12T00:33:37.271Z,1005.59
2016-06-12T00:33:47.287Z,1005.66
2016-06-12T00:33:57.271Z,1005.68
2016-06-12T00:34:07.271Z,1005.71
2016-06-12T00:34:17.271Z,1005.64
2016-06-12T00:34:27.271Z,1005.58
2016-06-12T00:34:37.259Z,1005.66
2016-06-12T00:34:47.259Z,1005.63
2016-06-12T00:34:57.415Z,1005.61
2016-06-12T00:35:07.243Z,1005.64
2016-06-12T00:35:17.680Z,1005.6
2016-06-12T00:35:27.087Z,1005.66
2016-06-12T00:35:37.746Z,1005.67
2016-06-12T00:35:47.074Z,1005.61
2016-06-12T00:35:57.215Z,1005.57
2016-06-12T00:36:07.215Z,1005.65
2016-06-12T00:36:17.058Z,1005.62
2016-06-12T00:36:27.199Z,1005.63
2016-06-12T00:36:39.281Z,1005.62
2016-06-12T00:36:47.187Z,1005.66
2016-06-12T00:36:57.187Z,1005.63
2016-06-12T00:37:07.187Z,1005.62
2016-06-12T00:37:17.172Z,1005.59
2016-06-12T00:37:27.172Z,1005.6
2016-06-12T00:37:37.175Z,1005.61
2016-06-12T00:37:47.159Z,1005.58
2016-06-12T00:37:57.159Z,1005.52
2016-06-12T00:38:07.159Z,1005.6
2016-06-12T00:38:17.144Z,1005.58
2016-06-12T00:38:27.144Z,1005.61
2016-06-12T00:38:37.131Z,1005.57
2016-06-12T00:38:47.131Z,1005.55
2016-06-12T00:38:57.131Z,1005.5
2016-06-12T00:39:07.115Z,1005.52
2016-06-12T00:39:17.115Z,1005.53
2016-06-12T00:39:27.115Z,1005.58
2016-06-12T00:39:37.104Z,1005.6
2016-06-12T00:39:47.104Z,1005.53
2016-06-12T00:39:57.104Z,1005.57
2016-06-12T00:40:07.088Z,1005.56
2016-06-12T00:40:17.104Z,1005.55
2016-06-12T00:40:27.088Z,1005.53
2016-06-12T00:40:37.074Z,1005.58
2016-06-12T00:40:47.074Z,1005.52
2016-06-12T00:40:57.074Z,1005.52
2016-06-12T00:41:07.074Z,1005.55
2016-06-12T00:41:17.059Z,1005.58
2016-06-12T00:41:27.059Z,1005.54
2016-06-12T00:41:37.047Z,1005.54
2016-06-12T00:41:47.063Z,1005.54
2016-06-12T00:41:57.063Z,1005.56
2016-06-12T00:42:07.032Z,1005.53
2016-06-12T00:42:17.047Z,1005.56
2016-06-12T00:42:27.032Z,1005.55
2016-06-12T00:42:37.018Z,1005.51
2016-06-12T00:42:47.018Z,1005.5
2016-06-12T00:42:57.018Z,1005.53
2016-06-12T00:43:07.002Z,1005.55
2016-06-12T00:43:17.002Z,1005.54
2016-06-12T00:43:27.002Z,1005.55
2016-06-12T00:43:37.006Z,1005.53
2016-06-12T00:43:46.991Z,1005.57
2016-06-12T00:43:56.991Z,1005.56
2016-06-12T00:44:06.991Z,1005.53
2016-06-12T00:44:16.975Z,1005.56
2016-06-12T00:44:26.819Z,1005.57
2016-06-12T00:44:36.962Z,1005.53
2016-06-12T00:44:46.962Z,1005.56
2016-06-12T00:44:56.650Z,1005.49
2016-06-12T00:45:06.947Z,1005.48
2016-06-12T00:45:16.947Z,1005.5
2016-06-12T00:45:26.947Z,1005.51
2016-06-12T00:45:36.950Z,1005.53
2016-06-12T00:45:46.778Z,1005.55
2016-06-12T00:45:56.934Z,1005.49
2016-06-12T00:46:06.919Z,1005.51
2016-06-12T00:46:16.919Z,1005.55
2016-06-12T00:46:26.919Z,1005.55
2016-06-12T00:46:36.906Z,1005.55
2016-06-12T00:46:46.906Z,1005.51
2016-06-12T00:46:56.890Z,1005.56
2016-06-12T00:47:06.890Z,1005.55
2016-06-12T00:47:16.890Z,1005.51
2016-06-12T00:47:26.875Z,1005.48
2016-06-12T00:47:36.878Z,1005.57
2016-06-12T00:47:46.878Z,1005.49
2016-06-12T00:47:56.878Z,1005.54
2016-06-12T00:48:06.862Z,1005.5
2016-06-12T00:48:16.862Z,1005.52
2016-06-12T00:48:26.862Z,1005.5
2016-06-12T00:48:36.849Z,1005.53
2016-06-12T00:48:46.849Z,1005.55
2016-06-12T00:48:56.849Z,1005.52
2016-06-12T00:49:06.834Z,1005.52
2016-06-12T00:49:16.834Z,1005.48
2016-06-12T00:49:26.834Z,1005.46
2016-06-12T00:49:38.338Z,1005.54
2016-06-12T00:49:47.072Z,1005.47
2016-06-12T00:49:56.666Z,1005.51
2016-06-12T00:50:06.900Z,1005.44
2016-06-12T00:50:16.807Z,1005.5
2016-06-12T00:50:26.807Z,1005.52
2016-06-12T00:50:36.652Z,1005.5
2016-06-12T00:50:47.387Z,1005.46
2016-06-12T00:50:56.855Z,1005.48
2016-06-12T00:51:06.777Z,1005.51
2016-06-12T00:51:16.777Z,1005.47
2016-06-12T00:51:26.777Z,1005.47
2016-06-12T00:51:36.781Z,1005.5
2016-06-12T00:51:46.766Z,1005.49
2016-06-12T00:51:56.766Z,1005.46
2016-06-12T00:52:06.750Z,1005.47
2016-06-12T00:52:16.750Z,1005.46
2016-06-12T00:52:26.750Z,1005.47
2016-06-12T00:52:36.752Z,1005.47
2016-06-12T00:52:46.736Z,1005.46
2016-06-12T00:52:56.721Z,1005.44
2016-06-12T00:53:06.736Z,1005.47
2016-06-12T00:53:16.721Z,1005.49
2016-06-12T00:53:26.721Z,1005.49
2016-06-12T00:53:36.709Z,1005.43
2016-06-12T00:53:46.709Z,1005.48
2016-06-12T00:53:56.694Z,1005.41
2016-06-12T00:54:06.709Z,1005.43
2016-06-12T00:54:16.694Z,1005.41
2016-06-12T00:54:26.694Z,1005.44
2016-06-12T00:54:36.681Z,1005.44
2016-06-12T00:54:46.681Z,1005.46
2016-06-12T00:54:56.681Z,1005.42
2016-06-12T00:55:06.665Z,1005.43
2016-06-12T00:55:16.665Z,1005.45
2016-06-12T00:55:26.665Z,1005.44
2016-06-12T00:55:36.652Z,1005.45
2016-06-12T00:55:46.667Z,1005.43
2016-06-12T00:55:56.636Z,1005.44
2016-06-12T00:56:06.652Z,1005.46
2016-06-12T00:56:16.636Z,1005.46
2016-06-12T00:56:26.620Z,1005.5
2016-06-12T00:56:36.624Z,1005.41
2016-06-12T00:56:46.624Z,1005.44
2016-06-12T00:56:56.609Z,1005.44
2016-06-12T00:57:06.609Z,1005.45
2016-06-12T00:57:16.609Z,1005.45
2016-06-12T00:57:26.453Z,1005.48
2016-06-12T00:57:36.596Z,1005.48
2016-06-12T00:57:46.596Z,1005.5
2016-06-12T00:57:56.596Z,1005.41
2016-06-12T00:58:06.581Z,1005.48
2016-06-12T00:58:16.581Z,1005.41
2016-06-12T00:58:26.565Z,1005.42
2016-06-12T00:58:36.568Z,1005.49
2016-06-12T00:58:46.568Z,1005.43
2016-06-12T00:58:56.552Z,1005.48
2016-06-12T00:59:06.552Z,1005.49
2016-06-12T00:59:16.552Z,1005.47
2016-06-12T00:59:26.537Z,1005.51
2016-06-12T00:59:36.540Z,1005.45
2016-06-12T00:59:46.524Z,1005.48
2016-06-12T00:59:56.540Z,1005.47
2016-06-12T01:00:06.524Z,1005.46
2016-06-12T01:00:16.540Z,1005.46
2016-06-12T01:00:26.524Z,1005.45
2016-06-12T01:00:36.511Z,1005.45
2016-06-12T01:00:46.496Z,1005.44
2016-06-12T01:00:56.496Z,1005.44
2016-06-12T01:01:06.496Z,1005.44
2016-06-12T01:01:16.480Z,1005.41
2016-06-12T01:01:26.511Z,1005.44
2016-06-12T01:01:36.468Z,1005.46
2016-06-12T01:01:46.483Z,1005.44
2016-06-12T01:01:56.468Z,1005.44
2016-06-12T01:02:06.468Z,1005.39
2016-06-12T01:02:16.452Z,1005.46
2016-06-12T01:02:26.468Z,1005.49
2016-06-12T01:02:36.455Z,1005.4
2016-06-12T01:02:46.455Z,1005.44
2016-06-12T01:02:56.439Z,1005.46
2016-06-12T01:03:06.439Z,1005.43
2016-06-12T01:03:16.424Z,1005.42
2016-06-12T01:03:26.424Z,1005.42
2016-06-12T01:03:36.271Z,1005.38
2016-06-12T01:03:46.412Z,1005.4
2016-06-12T01:03:56.412Z,1005.4
2016-06-12T01:04:06.412Z,1005.39
2016-06-12T01:04:16.396Z,1005.36
2016-06-12T01:04:26.412Z,1005.41
2016-06-12T01:04:36.633Z,1005.45
2016-06-12T01:04:46.383Z,1005.43
2016-06-12T01:04:57.164Z,1005.42
2016-06-12T01:05:06.242Z,1005.41
2016-06-12T01:05:17.836Z,1005.44
2016-06-12T01:05:26.695Z,1005.4
2016-06-12T01:05:37.245Z,1005.4
2016-06-12T01:05:46.386Z,1005.41
2016-06-12T01:05:56.698Z,1005.41
2016-06-12T01:06:06.339Z,1005.41
2016-06-12T01:06:16.339Z,1005.37
2016-06-12T01:06:26.183Z,1005.38
2016-06-12T01:06:36.342Z,1005.35
2016-06-12T01:06:46.342Z,1005.39
2016-06-12T01:06:56.326Z,1005.39
2016-06-12T01:07:06.326Z,1005.37
2016-06-12T01:07:16.326Z,1005.38
2016-06-12T01:07:26.311Z,1005.38
2016-06-12T01:07:36.315Z,1005.39
2016-06-12T01:07:46.299Z,1005.41
2016-06-12T01:07:56.299Z,1005.35
2016-06-12T01:08:06.283Z,1005.33
2016-06-12T01:08:16.283Z,1005.39
2016-06-12T01:08:26.283Z,1005.36
2016-06-12T01:08:36.270Z,1005.37
2016-06-12T01:08:46.270Z,1005.35
2016-06-12T01:08:56.270Z,1005.36
2016-06-12T01:09:06.270Z,1005.35
2016-06-12T01:09:16.254Z,1005.35
2016-06-12T01:09:26.285Z,1005.35
2016-06-12T01:09:36.258Z,1005.33
2016-06-12T01:09:46.243Z,1005.39
2016-06-12T01:09:56.086Z,1005.37
2016-06-12T01:10:06.227Z,1005.35
2016-06-12T01:10:16.227Z,1005.35
2016-06-12T01:10:26.227Z,1005.34
2016-06-12T01:10:36.230Z,1005.32
2016-06-12T01:10:46.214Z,1005.38
2016-06-12T01:10:56.230Z,1005.31
2016-06-12T01:11:06.199Z,1005.35
2016-06-12T01:11:16.199Z,1005.36
2016-06-12T01:11:26.199Z,1005.36
2016-06-12T01:11:36.201Z,1005.31
2016-06-12T01:11:46.185Z,1005.32
2016-06-12T01:11:56.185Z,1005.34
2016-06-12T01:12:06.185Z,1005.31
2016-06-12T01:12:16.169Z,1005.33
2016-06-12T01:12:26.185Z,1005.31
2016-06-12T01:12:36.158Z,1005.31
2016-06-12T01:12:46.158Z,1005.34
2016-06-12T01:12:56.158Z,1005.31
2016-06-12T01:13:06.142Z,1005.33
2016-06-12T01:13:16.142Z,1005.3
2016-06-12T01:13:26.142Z,1005.32
2016-06-12T01:13:36.130Z,1005.33
2016-06-12T01:13:46.130Z,1005.33
2016-06-12T01:13:56.114Z,1005.36
2016-06-12T01:14:06.114Z,1005.31
2016-06-12T01:14:16.114Z,1005.31
2016-06-12T01:14:26.114Z,1005.3
2016-06-12T01:14:36.101Z,1005.32
2016-06-12T01:14:46.117Z,1005.36
2016-06-12T01:14:56.101Z,1005.34
2016-06-12T01:15:06.086Z,1005.31
2016-06-12T01:15:16.086Z,1005.34
2016-06-12T01:15:26.086Z,1005.31
2016-06-12T01:15:36.074Z,1005.35
2016-06-12T01:15:46.074Z,1005.37
2016-06-12T01:15:56.074Z,1005.36
2016-06-12T01:16:06.058Z,1005.34
2016-06-12T01:16:16.058Z,1005.35
2016-06-12T01:16:26.058Z,1005.34
2016-06-12T01:16:36.045Z,1005.36
2016-06-12T01:16:46.045Z,1005.34
2016-06-12T01:16:56.045Z,1005.31
2016-06-12T01:17:06.029Z,1005.3
2016-06-12T01:17:16.029Z,1005.37
2016-06-12T01:17:26.029Z,1005.36
2016-06-12T01:17:36.018Z,1005.33
2016-06-12T01:17:46.018Z,1005.32
2016-06-12T01:17:56.002Z,1005.35
2016-06-12T01:18:06.018Z,1005.33
2016-06-12T01:18:16.002Z,1005.33
2016-06-12T01:18:26.002Z,1005.34
2016-06-12T01:18:35.988Z,1005.3
2016-06-12T01:18:45.988Z,1005.34
2016-06-12T01:18:55.973Z,1005.28
2016-06-12T01:19:05.973Z,1005.33
2016-06-12T01:19:15.973Z,1005.29
2016-06-12T01:19:25.973Z,1005.3
2016-06-12T01:19:35.960Z,1005.33
2016-06-12T01:19:46.804Z,1005.33
2016-06-12T01:19:56.226Z,1005.34
2016-06-12T01:20:05.804Z,1005.3
2016-06-12T01:20:16.273Z,1005.29
2016-06-12T01:20:26.210Z,1005.35
2016-06-12T01:20:35.776Z,1005.32
2016-06-12T01:20:46.401Z,1005.34
2016-06-12T01:20:56.354Z,1005.3
2016-06-12T01:21:05.916Z,1005.27
2016-06-12T01:21:15.901Z,1005.31
2016-06-12T01:21:25.901Z,1005.27
2016-06-12T01:21:35.904Z,1005.32
2016-06-12T01:21:45.904Z,1005.31
2016-06-12T01:21:55.904Z,1005.29
2016-06-12T01:22:05.888Z,1005.31
2016-06-12T01:22:15.888Z,1005.33
2016-06-12T01:22:25.872Z,1005.33
2016-06-12T01:22:35.876Z,1005.29
2016-06-12T01:22:45.876Z,1005.34
2016-06-12T01:22:55.861Z,1005.26
2016-06-12T01:23:05.861Z,1005.32
2016-06-12T01:23:15.861Z,1005.26
2016-06-12T01:23:25.845Z,1005.3
2016-06-12T01:23:35.848Z,1005.24
2016-06-12T01:23:45.832Z,1005.3
2016-06-12T01:23:55.832Z,1005.24
2016-06-12T01:24:05.832Z,1005.32
2016-06-12T01:24:15.832Z,1005.28
2016-06-12T01:24:25.832Z,1005.25
2016-06-12T01:24:35.820Z,1005.27
2016-06-12T01:24:45.804Z,1005.27
2016-06-12T01:24:55.820Z,1005.27
2016-06-12T01:25:05.804Z,1005.3
2016-06-12T01:25:15.804Z,1005.2
2016-06-12T01:25:25.789Z,1005.26
2016-06-12T01:25:35.789Z,1005.26
2016-06-12T01:25:45.776Z,1005.25
2016-06-12T01:25:55.776Z,1005.27
2016-06-12T01:26:05.776Z,1005.21
2016-06-12T01:26:15.776Z,1005.23
2016-06-12T01:26:25.760Z,1005.24
2016-06-12T01:26:35.760Z,1005.23
2016-06-12T01:26:45.607Z,1005.26
2016-06-12T01:26:55.748Z,1005.21
2016-06-12T01:27:05.763Z,1005.23
2016-06-12T01:27:15.748Z,1005.24
2016-06-12T01:27:25.748Z,1005.27
2016-06-12T01:27:35.732Z,1005.24
2016-06-12T01:27:45.735Z,1005.27
2016-06-12T01:27:55.719Z,1005.27
2016-06-12T01:28:05.719Z,1005.24
2016-06-12T01:28:15.719Z,1005.21
2016-06-12T01:28:25.704Z,1005.26
2016-06-12T01:28:35.548Z,1005.26
2016-06-12T01:28:45.691Z,1005.25
2016-06-12T01:28:55.722Z,1005.22
2016-06-12T01:29:05.535Z,1005.23
2016-06-12T01:29:15.707Z,1005.22
2016-06-12T01:29:25.676Z,1005.27
2016-06-12T01:29:35.676Z,1005.22
2016-06-12T01:29:45.663Z,1005.26
2016-06-12T01:29:55.663Z,1005.18
2016-06-12T01:30:05.647Z,1005.23
2016-06-12T01:30:15.663Z,1005.21
2016-06-12T01:30:25.647Z,1005.22
2016-06-12T01:30:35.647Z,1005.2
2016-06-12T01:30:45.636Z,1005.22
2016-06-12T01:30:55.636Z,1005.24
2016-06-12T01:31:05.620Z,1005.2
2016-06-12T01:31:15.636Z,1005.24
2016-06-12T01:31:25.620Z,1005.21
2016-06-12T01:31:35.620Z,1005.22
2016-06-12T01:31:45.606Z,1005.22
2016-06-12T01:31:55.606Z,1005.24
2016-06-12T01:32:05.591Z,1005.23
2016-06-12T01:32:15.591Z,1005.21
2016-06-12T01:32:25.591Z,1005.2
2016-06-12T01:32:35.591Z,1005.18
2016-06-12T01:32:45.578Z,1005.24
2016-06-12T01:32:55.578Z,1005.24
2016-06-12T01:33:05.578Z,1005.23
2016-06-12T01:33:15.563Z,1005.26
2016-06-12T01:33:25.563Z,1005.25
2016-06-12T01:33:35.547Z,1005.24
2016-06-12T01:33:45.551Z,1005.23
2016-06-12T01:33:55.551Z,1005.24
2016-06-12T01:34:05.535Z,1005.22
2016-06-12T01:34:15.535Z,1005.21
2016-06-12T01:34:25.535Z,1005.25
2016-06-12T01:34:35.535Z,1005.19
2016-06-12T01:34:45.523Z,1005.2
2016-06-12T01:34:56.085Z,1005.2
2016-06-12T01:35:05.507Z,1005.24
2016-06-12T01:35:15.491Z,1005.22
2016-06-12T01:35:25.788Z,1005.24
2016-06-12T01:35:35.913Z,1005.23
2016-06-12T01:35:45.869Z,1005.21
2016-06-12T01:35:55.494Z,1005.24
2016-06-12T01:36:05.338Z,1005.22
2016-06-12T01:36:15.479Z,1005.25
2016-06-12T01:36:25.323Z,1005.26
2016-06-12T01:36:35.479Z,1005.23
2016-06-12T01:36:45.466Z,1005.26
2016-06-12T01:36:55.466Z,1005.23
2016-06-12T01:37:05.451Z,1005.23
2016-06-12T01:37:15.451Z,1005.28
2016-06-12T01:37:25.451Z,1005.24
2016-06-12T01:37:35.451Z,1005.26
2016-06-12T01:37:45.438Z,1005.26
2016-06-12T01:37:55.422Z,1005.27
2016-06-12T01:38:05.422Z,1005.24
2016-06-12T01:38:15.266Z,1005.26
2016-06-12T01:38:25.422Z,1005.22
2016-06-12T01:38:35.422Z,1005.26
2016-06-12T01:38:45.410Z,1005.27
2016-06-12T01:38:55.410Z,1005.26
2016-06-12T01:39:05.394Z,1005.25
2016-06-12T01:39:15.394Z,1005.26
2016-06-12T01:39:25.394Z,1005.27
2016-06-12T01:39:35.378Z,1005.24
2016-06-12T01:39:45.381Z,1005.27
2016-06-12T01:39:55.381Z,1005.24
2016-06-12T01:40:05.381Z,1005.23
2016-06-12T01:40:15.397Z,1005.29
2016-06-12T01:40:25.350Z,1005.26
2016-06-12T01:40:35.350Z,1005.24
2016-06-12T01:40:45.354Z,1005.23
2016-06-12T01:40:55.339Z,1005.23
2016-06-12T01:41:05.354Z,1005.25
2016-06-12T01:41:15.339Z,1005.23
2016-06-12T01:41:25.323Z,1005.23
2016-06-12T01:41:35.323Z,1005.23
2016-06-12T01:41:45.325Z,1005.25
2016-06-12T01:41:55.309Z,1005.21
2016-06-12T01:42:05.309Z,1005.19
2016-06-12T01:42:15.309Z,1005.22
2016-06-12T01:42:25.294Z,1005.18
2016-06-12T01:42:35.294Z,1005.22
2016-06-12T01:42:45.297Z,1005.25
2016-06-12T01:42:55.281Z,1005.25
2016-06-12T01:43:05.281Z,1005.23
2016-06-12T01:43:15.281Z,1005.22
2016-06-12T01:43:25.265Z,1005.21
2016-06-12T01:43:35.265Z,1005.2
2016-06-12T01:43:45.253Z,1005.21
2016-06-12T01:43:55.253Z,1005.26
2016-06-12T01:44:05.268Z,1005.23
2016-06-12T01:44:15.253Z,1005.21
2016-06-12T01:44:25.237Z,1005.22
2016-06-12T01:44:35.237Z,1005.23
2016-06-12T01:44:45.241Z,1005.21
2016-06-12T01:44:55.226Z,1005.24
2016-06-12T01:45:05.226Z,1005.22
2016-06-12T01:45:15.210Z,1005.21
2016-06-12T01:45:25.210Z,1005.2
2016-06-12T01:45:35.226Z,1005.17
2016-06-12T01:45:45.197Z,1005.2
2016-06-12T01:45:55.197Z,1005.2
2016-06-12T01:46:05.197Z,1005.22
2016-06-12T01:46:15.182Z,1005.24
2016-06-12T01:46:25.182Z,1005.21
2016-06-12T01:46:35.182Z,1005.19
2016-06-12T01:46:45.184Z,1005.2
2016-06-12T01:46:55.168Z,1005.16
2016-06-12T01:47:05.168Z,1005.19
2016-06-12T01:47:15.168Z,1005.22
2016-06-12T01:47:25.152Z,1005.21
2016-06-12T01:47:35.152Z,1005.24
2016-06-12T01:47:45.141Z,1005.2
2016-06-12T01:47:54.985Z,1005.24
2016-06-12T01:48:05.141Z,1005.22
2016-06-12T01:48:15.125Z,1005.2
2016-06-12T01:48:25.125Z,1005.18
2016-06-12T01:48:35.125Z,1005.19
2016-06-12T01:48:45.128Z,1005.16
2016-06-12T01:48:55.113Z,1005.22
2016-06-12T01:49:05.097Z,1005.19
2016-06-12T01:49:15.097Z,1005.23
2016-06-12T01:49:25.113Z,1005.17
2016-06-12T01:49:35.097Z,1005.16
2016-06-12T01:49:45.100Z,1005.15
2016-06-12T01:49:55.194Z,1005.16
2016-06-12T01:50:05.084Z,1005.18
2016-06-12T01:50:15.100Z,1005.18
2016-06-12T01:50:25.897Z,1005.16
2016-06-12T01:50:35.084Z,1005.16
2016-06-12T01:50:45.072Z,1005.14
2016-06-12T01:50:55.665Z,1005.19
2016-06-12T01:51:05.056Z,1005.16
2016-06-12T01:51:15.040Z,1005.17
2016-06-12T01:51:25.040Z,1005.15
2016-06-12T01:51:35.040Z,1005.19
2016-06-12T01:51:45.028Z,1005.16
2016-06-12T01:51:55.028Z,1005.18
2016-06-12T01:52:05.028Z,1005.13
2016-06-12T01:52:15.012Z,1005.11
2016-06-12T01:52:25.012Z,1005.12
2016-06-12T01:52:34.997Z,1005.09
2016-06-12T01:52:45.000Z,1005.12
2016-06-12T01:52:55.000Z,1005.12
2016-06-12T01:53:04.984Z,1005.13
2016-06-12T01:53:14.984Z,1005.16
2016-06-12T01:53:24.984Z,1005.14
2016-06-12T01:53:34.968Z,1005.11
2016-06-12T01:53:44.971Z,1005.16
2016-06-12T01:53:54.971Z,1005.15
2016-06-12T01:54:04.971Z,1005.17
2016-06-12T01:54:14.987Z,1005.11
2016-06-12T01:54:24.956Z,1005.13
2016-06-12T01:54:34.940Z,1005.13
2016-06-12T01:54:44.944Z,1005.11
2016-06-12T01:54:54.944Z,1005.11
2016-06-12T01:55:04.944Z,1005.12
2016-06-12T01:55:14.944Z,1005.14
2016-06-12T01:55:24.928Z,1005.14
2016-06-12T01:55:34.928Z,1005.12
2016-06-12T01:55:44.930Z,1005.14
2016-06-12T01:55:54.915Z,1005.11
2016-06-12T01:56:04.915Z,1005.13
2016-06-12T01:56:14.915Z,1005.17
2016-06-12T01:56:24.915Z,1005.11
2016-06-12T01:56:34.899Z,1005.16
2016-06-12T01:56:44.887Z,1005.12
2016-06-12T01:56:54.887Z,1005.12
2016-06-12T01:57:04.871Z,1005.06
2016-06-12T01:57:14.871Z,1005.12
2016-06-12T01:57:24.871Z,1005.14
2016-06-12T01:57:34.855Z,1005.1
2016-06-12T01:57:44.859Z,1005.13
2016-06-12T01:57:54.859Z,1005.12
2016-06-12T01:58:04.844Z,1005.15
2016-06-12T01:58:14.844Z,1005.11
2016-06-12T01:58:24.844Z,1005.13
2016-06-12T01:58:34.828Z,1005.14
2016-06-12T01:58:44.830Z,1005.12
2016-06-12T01:58:54.830Z,1005.17
2016-06-12T01:59:04.814Z,1005.11
2016-06-12T01:59:14.814Z,1005.13
2016-06-12T01:59:24.814Z,1005.1
2016-06-12T01:59:34.799Z,1005.12
2016-06-12T01:59:44.803Z,1005.12
2016-06-12T01:59:54.803Z,1005.09
2016-06-12T02:00:04.803Z,1005.11
2016-06-12T02:00:14.787Z,1005.13
2016-06-12T02:00:24.787Z,1005.13
2016-06-12T02:00:34.772Z,1005.1
2016-06-12T02:00:44.775Z,1005.12
2016-06-12T02:00:54.775Z,1005.1
2016-06-12T02:01:04.759Z,1005.15
2016-06-12T02:01:14.759Z,1005.11